CheckWX is a tool to help pilots better visualize weather data.  It is not intended as a substitute for an official pre-flight weather briefing.

00:58:09 UTC

KEFD METAR
Ellington Airport
Houston, Texas, USA
Current

1 hour ago

KEFD 052350Z 14005KT 10SM FEW035 BKN250 19/14 A2999
Observed
Dec-5 @ 23:50 UTC
Wind
  • 140° at 5 KTS
Visibility
10 SM
Flight Rules
VFR
Cloud Levels
  • Few at 3,500' AGL
  • Broken at 25,000' AGL
Temperature
19°C / 66°F
Dewpoint
14°C / 57°F
Humidity
73%
Altimeter
29.99" Hg
Pressure
1015.62 hPa
Previous

2 hours ago

KEFD 052250Z 15004KT 10SM FEW0350 BKN250 22/14 A2998
Observed
Dec-5 @ 22:50 UTC
Wind
  • 150° at 4 KTS
Visibility
10 SM
Flight Rules
VFR
Cloud Levels
  • Broken at 25,000' AGL
Temperature
22°C / 72°F
Dewpoint
14°C / 57°F
Humidity
61%
Altimeter
29.98" Hg
Pressure
1015.22 hPa
Previous

3 hours ago

KEFD 052150Z 16010KT 10SM FEW035 BKN250 22/14 A2998
Observed
Dec-5 @ 21:50 UTC
Wind
  • 160° at 10 KTS
Visibility
10 SM
Flight Rules
VFR
Cloud Levels
  • Few at 3,500' AGL
  • Broken at 25,000' AGL
Temperature
22°C / 72°F
Dewpoint
14°C / 57°F
Humidity
61%
Altimeter
29.98" Hg
Pressure
1015.22 hPa